createdAt,value
2023-03-24T00:01:09.934Z,14.80
2023-03-24T00:03:38.611Z,14.85
2023-03-24T00:06:09.338Z,15.60
2023-03-24T00:08:37.433Z,15.20
2023-03-24T00:11:11.726Z,15.23
2023-03-24T00:13:39.879Z,14.18
2023-03-24T00:16:11.076Z,14.90
2023-03-24T00:18:39.717Z,14.65
2023-03-24T00:21:08.960Z,14.47
2023-03-24T00:23:36.830Z,15.98
2023-03-24T00:26:08.915Z,17.08
2023-03-24T00:28:37.317Z,18.48
2023-03-24T00:31:06.613Z,16.48
2023-03-24T00:33:35.367Z,16.23
2023-03-24T00:36:07.036Z,17.25
2023-03-24T00:38:36.330Z,16.77
2023-03-24T00:41:07.792Z,16.35
2023-03-24T00:43:35.892Z,16.23
2023-03-24T00:46:06.475Z,16.63
2023-03-24T00:48:35.337Z,16.87
2023-03-24T00:51:03.167Z,16.45
2023-03-24T00:53:31.391Z,16.87
2023-03-24T00:55:59.032Z,16.58
2023-03-24T00:58:29.931Z,16.67
2023-03-24T01:00:58.600Z,15.77
2023-03-24T01:03:29.485Z,16.75
2023-03-24T01:06:03.170Z,17.75
2023-03-24T01:08:32.599Z,17.17
2023-03-24T01:11:01.278Z,16.07
2023-03-24T01:13:34.323Z,15.85
2023-03-24T01:16:03.311Z,16.92
2023-03-24T01:18:31.026Z,15.65
2023-03-24T01:20:58.805Z,14.87
2023-03-24T01:23:27.468Z,15.50
2023-03-24T01:25:55.298Z,15.77
2023-03-24T01:28:25.106Z,17.10
2023-03-24T01:30:54.752Z,17.08
2023-03-24T01:33:22.684Z,15.20
2023-03-24T01:35:50.580Z,15.00
2023-03-24T01:38:18.620Z,15.98
2023-03-24T01:40:47.523Z,15.65
2023-03-24T01:43:21.667Z,15.45
2023-03-24T01:46:01.510Z,16.02
2023-03-24T01:48:37.301Z,15.10
2023-03-24T01:51:16.874Z,14.90
2023-03-24T01:54:00.229Z,15.07
2023-03-24T01:56:29.685Z,14.80
2023-03-24T01:59:05.890Z,15.60
2023-03-24T02:01:34.809Z,15.47
2023-03-24T02:04:05.503Z,15.13
2023-03-24T02:06:35.426Z,15.25
2023-03-24T02:09:04.320Z,14.82
2023-03-24T02:11:33.838Z,15.45
2023-03-24T02:14:02.738Z,14.67
2023-03-24T02:16:33.485Z,15.90
2023-03-24T02:19:38.098Z,14.75
2023-03-24T02:22:33.452Z,15.32
2023-03-24T02:25:22.437Z,14.90
2023-03-24T02:27:51.142Z,14.37
2023-03-24T02:30:45.286Z,14.75
2023-03-24T02:33:31.745Z,14.45
2023-03-24T02:36:11.696Z,16.02
2023-03-24T02:39:16.445Z,15.82
2023-03-24T02:42:07.182Z,14.93
2023-03-24T02:44:41.242Z,15.23
2023-03-24T02:47:33.845Z,15.52
2023-03-24T02:50:22.222Z,15.70
2023-03-24T02:52:54.494Z,14.50
2023-03-24T02:55:34.336Z,15.20
2023-03-24T02:58:05.525Z,15.00
2023-03-24T03:00:41.916Z,14.45
2023-03-24T03:03:27.218Z,16.20
2023-03-24T03:05:59.275Z,14.70
2023-03-24T03:08:29.364Z,14.23
2023-03-24T03:10:58.802Z,15.23
2023-03-24T03:13:37.198Z,14.85
2023-03-24T03:16:12.398Z,14.87
2023-03-24T03:18:43.914Z,15.38
2023-03-24T03:21:14.017Z,15.00
2023-03-24T03:23:46.197Z,14.68
2023-03-24T03:26:17.647Z,15.10
2023-03-24T03:28:51.171Z,14.70
2023-03-24T03:31:30.037Z,15.77
2023-03-24T03:34:29.000Z,14.97
2023-03-24T03:37:04.373Z,14.73
2023-03-24T03:39:35.671Z,14.87
2023-03-24T03:42:06.393Z,15.65
2023-03-24T03:44:34.195Z,14.85
2023-03-24T03:47:02.049Z,15.40
2023-03-24T03:49:31.073Z,15.45
2023-03-24T03:51:59.144Z,15.40
2023-03-24T03:54:27.783Z,15.23
2023-03-24T03:56:56.512Z,15.27
2023-03-24T03:59:34.719Z,15.70
2023-03-24T04:02:42.428Z,15.73
2023-03-24T04:05:19.765Z,16.02
2023-03-24T04:07:58.163Z,15.18
2023-03-24T04:10:41.776Z,16.05
2023-03-24T04:13:17.457Z,14.60
2023-03-24T04:16:04.006Z,14.75
2023-03-24T04:18:53.581Z,15.05
2023-03-24T04:21:48.839Z,15.07
2023-03-24T04:24:36.305Z,15.85
2023-03-24T04:27:29.307Z,14.60
2023-03-24T04:30:17.328Z,15.05
2023-03-24T04:33:05.782Z,14.93
2023-03-24T04:35:42.318Z,15.75
2023-03-24T04:38:17.242Z,15.27
2023-03-24T04:40:46.701Z,15.13
2023-03-24T04:43:18.138Z,15.27
2023-03-24T04:45:49.995Z,16.10
2023-03-24T04:48:19.070Z,14.70
2023-03-24T04:50:59.240Z,14.95
2023-03-24T04:53:28.139Z,15.10
2023-03-24T04:56:02.115Z,15.75
2023-03-24T04:58:31.242Z,15.20
2023-03-24T05:00:58.817Z,15.90
2023-03-24T05:03:27.071Z,15.00
2023-03-24T05:05:55.008Z,14.87
2023-03-24T05:08:22.516Z,14.75
2023-03-24T05:10:50.864Z,13.75
2023-03-24T05:13:18.801Z,14.75
2023-03-24T05:15:46.990Z,13.18
2023-03-24T05:18:15.778Z,13.93
2023-03-24T05:20:43.744Z,14.10
2023-03-24T05:23:12.269Z,14.13
2023-03-24T05:25:40.423Z,13.35
2023-03-24T05:28:08.314Z,13.68
2023-03-24T05:30:36.302Z,13.97
2023-03-24T05:33:06.458Z,13.07
2023-03-24T05:35:34.986Z,13.30
2023-03-24T05:38:02.654Z,14.07
2023-03-24T05:40:30.786Z,13.93
2023-03-24T05:42:59.108Z,13.47
2023-03-24T05:45:27.200Z,14.45
2023-03-24T05:47:55.831Z,13.98
2023-03-24T05:50:24.486Z,13.52
2023-03-24T05:52:52.696Z,12.88
2023-03-24T05:55:22.055Z,13.73
2023-03-24T05:57:51.276Z,13.95
2023-03-24T06:00:20.751Z,13.98
2023-03-24T06:02:49.402Z,12.95
2023-03-24T06:05:18.018Z,13.30
2023-03-24T06:07:45.959Z,14.10
2023-03-24T06:10:14.547Z,14.38
2023-03-24T06:12:43.180Z,14.18
2023-03-24T06:15:11.683Z,13.95
2023-03-24T06:17:39.843Z,14.38
2023-03-24T06:20:15.952Z,13.30
2023-03-24T06:22:45.348Z,13.27
2023-03-24T06:25:15.365Z,13.32
2023-03-24T06:27:48.198Z,13.77
2023-03-24T06:30:20.233Z,13.20
2023-03-24T06:32:48.821Z,14.30
2023-03-24T06:35:17.395Z,14.63
2023-03-24T06:37:46.141Z,14.27
2023-03-24T06:40:16.347Z,15.13
2023-03-24T06:42:46.325Z,15.13
2023-03-24T06:45:14.016Z,14.20
2023-03-24T06:47:41.803Z,14.15
2023-03-24T06:50:10.517Z,14.52
2023-03-24T06:52:38.217Z,13.77
2023-03-24T06:55:06.441Z,13.62
2023-03-24T06:57:34.363Z,13.90
2023-03-24T07:00:06.214Z,14.40
2023-03-24T07:02:35.838Z,13.93
2023-03-24T07:05:09.430Z,13.93
2023-03-24T07:08:16.815Z,13.20
2023-03-24T07:10:27.885Z,13.47
2023-03-24T07:12:55.961Z,13.15
2023-03-24T07:15:23.973Z,13.73
2023-03-24T07:17:52.273Z,13.57
2023-03-24T07:20:20.977Z,13.70
2023-03-24T07:22:49.823Z,13.67
2023-03-24T07:25:21.243Z,12.95
2023-03-24T07:27:49.624Z,14.18
2023-03-24T07:30:20.553Z,14.48
2023-03-24T07:32:54.724Z,14.65
2023-03-24T07:35:33.259Z,12.70
2023-03-24T07:38:01.665Z,12.80
2023-03-24T07:40:30.756Z,12.48
2023-03-24T07:43:04.003Z,12.15
2023-03-24T07:45:33.400Z,12.93
2023-03-24T07:48:04.562Z,13.37
2023-03-24T07:50:33.408Z,12.98
2023-03-24T07:53:01.711Z,12.93
2023-03-24T07:55:30.031Z,13.10
2023-03-24T07:57:58.054Z,12.00
2023-03-24T08:00:26.202Z,11.53
2023-03-24T08:02:54.676Z,10.82
2023-03-24T08:05:23.638Z,11.82
2023-03-24T08:07:55.818Z,10.50
2023-03-24T08:10:27.143Z,11.30
2023-03-24T08:12:55.609Z,10.80
2023-03-24T08:15:23.776Z,11.07
2023-03-24T08:17:51.829Z,10.20
2023-03-24T08:20:21.383Z,10.55
2023-03-24T08:22:50.242Z,11.10
2023-03-24T08:25:19.263Z,10.63
2023-03-24T08:27:47.382Z,10.35
2023-03-24T08:30:39.489Z,10.05
2023-03-24T08:33:15.044Z,9.10
2023-03-24T08:35:43.037Z,9.38
2023-03-24T08:38:12.078Z,9.90
2023-03-24T08:40:42.134Z,10.30
2023-03-24T08:43:14.330Z,9.57
2023-03-24T08:45:42.259Z,9.38
2023-03-24T08:48:10.526Z,9.85
2023-03-24T08:50:40.299Z,9.50
2023-03-24T08:53:09.511Z,9.40
2023-03-24T08:55:41.802Z,10.15
2023-03-24T08:58:14.552Z,9.05
2023-03-24T09:00:43.232Z,9.05
2023-03-24T09:03:18.653Z,9.73
2023-03-24T09:05:48.689Z,9.93
2023-03-24T09:08:19.451Z,9.32
2023-03-24T09:10:47.246Z,8.88
2023-03-24T09:13:15.969Z,9.38
2023-03-24T09:15:51.901Z,8.63
2023-03-24T09:18:21.667Z,8.43
2023-03-24T09:20:50.400Z,8.70
2023-03-24T09:23:19.198Z,7.78
2023-03-24T09:25:50.662Z,7.28
2023-03-24T09:28:19.880Z,6.60
2023-03-24T09:30:48.056Z,6.65
2023-03-24T09:33:16.092Z,6.68
2023-03-24T09:35:44.215Z,6.75
2023-03-24T09:38:12.435Z,7.12
2023-03-24T09:40:41.056Z,6.03
2023-03-24T09:43:20.800Z,6.32
2023-03-24T09:45:54.383Z,6.93
2023-03-24T09:48:39.662Z,5.28
2023-03-24T09:51:09.709Z,6.15
2023-03-24T09:54:08.306Z,6.00
2023-03-24T09:56:38.429Z,5.97
2023-03-24T09:59:16.742Z,6.82
2023-03-24T10:01:44.401Z,5.40
2023-03-24T10:04:24.333Z,5.82
2023-03-24T10:07:29.528Z,5.60
2023-03-24T10:09:59.360Z,4.70
2023-03-24T10:12:37.478Z,5.37
2023-03-24T10:15:49.356Z,4.75
2023-03-24T10:18:30.814Z,5.70
2023-03-24T10:21:18.066Z,4.17
2023-03-24T10:23:52.987Z,4.57
2023-03-24T10:26:58.581Z,4.60
2023-03-24T10:29:32.382Z,4.50
2023-03-24T10:32:04.113Z,5.43
2023-03-24T10:34:34.787Z,4.30
2023-03-24T10:37:04.940Z,3.45
2023-03-24T10:39:44.257Z,4.37
2023-03-24T10:42:18.677Z,3.92
2023-03-24T10:44:48.223Z,4.32
2023-03-24T10:47:19.479Z,4.03
2023-03-24T10:50:00.863Z,3.58
2023-03-24T10:52:46.941Z,4.40
2023-03-24T10:55:17.568Z,5.12
2023-03-24T10:57:46.782Z,5.50
2023-03-24T11:00:24.588Z,3.87
2023-03-24T11:02:59.563Z,4.32
2023-03-24T11:05:36.509Z,4.18
2023-03-24T11:08:48.093Z,3.47
2023-03-24T11:11:24.669Z,3.87
2023-03-24T11:13:57.690Z,3.40
2023-03-24T11:16:36.071Z,3.53
2023-03-24T11:19:07.034Z,3.03
2023-03-24T11:21:38.665Z,3.67
2023-03-24T11:24:13.233Z,3.67
2023-03-24T11:26:44.276Z,3.53
2023-03-24T11:29:32.880Z,3.05
2023-03-24T11:32:03.610Z,2.83
2023-03-24T11:34:39.583Z,3.30
2023-03-24T11:37:18.393Z,3.30
2023-03-24T11:40:25.172Z,3.53
2023-03-24T11:43:00.742Z,4.05
2023-03-24T11:45:38.262Z,3.53
2023-03-24T11:48:28.280Z,3.12
2023-03-24T11:50:57.842Z,3.47
2023-03-24T11:53:28.982Z,3.13
2023-03-24T11:56:34.040Z,3.42
2023-03-24T11:59:19.001Z,3.85
2023-03-24T12:02:08.495Z,3.05
2023-03-24T12:04:44.879Z,3.45
2023-03-24T12:07:42.486Z,3.47
2023-03-24T12:10:56.585Z,3.50
2023-03-24T12:13:36.395Z,3.72
2023-03-24T12:16:46.131Z,3.58
2023-03-24T12:19:35.775Z,3.40
2023-03-24T12:22:38.965Z,6.30
2023-03-24T12:25:44.582Z,7.70
2023-03-24T12:28:12.621Z,4.68
2023-03-24T12:31:02.124Z,3.92
2023-03-24T12:33:50.062Z,4.00
2023-03-24T12:36:39.160Z,4.40
2023-03-24T12:39:12.526Z,3.85
2023-03-24T12:42:12.172Z,3.67
2023-03-24T12:45:08.483Z,4.18
2023-03-24T12:47:42.067Z,4.47
2023-03-24T12:50:31.578Z,3.97
2023-03-24T12:53:23.233Z,3.87
2023-03-24T12:55:58.474Z,4.18
2023-03-24T12:58:45.931Z,4.43
2023-03-24T13:01:24.020Z,4.32
2023-03-24T13:04:11.395Z,3.47
2023-03-24T13:06:54.761Z,3.70
2023-03-24T13:09:24.834Z,4.15
2023-03-24T13:11:58.114Z,3.90
2023-03-24T13:14:31.257Z,3.58
2023-03-24T13:17:06.669Z,4.47
2023-03-24T13:19:36.967Z,3.50
2023-03-24T13:22:07.052Z,3.65
2023-03-24T13:24:34.877Z,3.37
2023-03-24T13:27:26.888Z,3.60
2023-03-24T13:30:09.103Z,2.97
2023-03-24T13:33:03.848Z,4.53
2023-03-24T13:35:41.226Z,4.97
2023-03-24T13:38:23.790Z,3.80
2023-03-24T13:40:53.813Z,6.10
2023-03-24T13:43:24.126Z,3.60
2023-03-24T13:45:59.737Z,3.05
2023-03-24T13:48:38.251Z,3.20
2023-03-24T13:51:22.414Z,3.47
2023-03-24T13:54:04.729Z,3.62
2023-03-24T13:56:35.087Z,3.43
2023-03-24T13:59:03.459Z,2.72
2023-03-24T14:01:44.166Z,3.05
2023-03-24T14:05:04.722Z,4.35
2023-03-24T14:07:34.125Z,3.12
2023-03-24T14:10:14.529Z,3.33
2023-03-24T14:13:00.616Z,3.12
2023-03-24T14:15:36.448Z,3.03
2023-03-24T14:18:22.868Z,2.60
2023-03-24T14:20:57.049Z,3.40
2023-03-24T14:23:44.164Z,2.80
2023-03-24T14:26:29.165Z,2.60
2023-03-24T14:28:57.587Z,2.28
2023-03-24T14:31:29.282Z,3.00
2023-03-24T14:34:03.562Z,2.37
2023-03-24T14:36:35.279Z,3.30
2023-03-24T14:39:07.428Z,3.08
2023-03-24T14:41:39.261Z,2.53
2023-03-24T14:44:07.051Z,2.92
2023-03-24T14:46:47.599Z,2.97
2023-03-24T14:49:29.313Z,2.80
2023-03-24T14:52:13.141Z,3.28
2023-03-24T14:55:13.459Z,3.72
2023-03-24T14:57:43.779Z,2.67
2023-03-24T15:00:28.738Z,3.05
2023-03-24T15:03:07.097Z,3.33
2023-03-24T15:05:34.964Z,2.80
2023-03-24T15:08:11.224Z,3.40
2023-03-24T15:10:40.929Z,3.00
2023-03-24T15:13:44.674Z,4.00
2023-03-24T15:16:12.515Z,2.83
2023-03-24T15:18:57.638Z,3.08
2023-03-24T15:21:38.594Z,3.87
2023-03-24T15:24:21.686Z,3.62
2023-03-24T15:26:51.534Z,3.58
2023-03-24T15:29:19.397Z,4.03
2023-03-24T15:31:47.516Z,3.70
2023-03-24T15:34:36.496Z,4.03
2023-03-24T15:37:08.009Z,3.80
2023-03-24T15:39:37.805Z,8.07
2023-03-24T15:42:07.493Z,18.57
2023-03-24T15:44:39.124Z,11.57
2023-03-24T15:47:16.724Z,14.40
2023-03-24T15:49:58.975Z,8.40
2023-03-24T15:52:34.702Z,4.37
2023-03-24T15:55:30.169Z,3.87
2023-03-24T15:58:28.003Z,4.90
2023-03-24T16:00:59.980Z,4.15
2023-03-24T16:03:30.319Z,4.07
2023-03-24T16:05:58.173Z,3.75
2023-03-24T16:08:39.336Z,3.70
2023-03-24T16:11:14.372Z,3.47
2023-03-24T16:13:44.838Z,4.05
2023-03-24T16:16:16.020Z,3.47
2023-03-24T16:18:46.021Z,3.60
2023-03-24T16:21:17.735Z,4.03
2023-03-24T16:23:45.854Z,7.72
2023-03-24T16:26:17.922Z,6.53
2023-03-24T16:28:47.964Z,4.25
2023-03-24T16:31:18.051Z,4.12
2023-03-24T16:33:46.922Z,3.50
2023-03-24T16:36:15.318Z,4.10
2023-03-24T16:38:43.351Z,4.43
2023-03-24T16:41:13.181Z,3.95
2023-03-24T16:43:42.028Z,4.18
2023-03-24T16:46:16.362Z,4.17
2023-03-24T16:48:44.378Z,4.22
2023-03-24T16:51:14.466Z,5.20
2023-03-24T16:53:43.150Z,4.43
2023-03-24T16:56:14.098Z,5.15
2023-03-24T16:58:41.827Z,4.87
2023-03-24T17:01:27.204Z,4.75
2023-03-24T17:03:59.928Z,5.45
2023-03-24T17:06:29.401Z,5.68
2023-03-24T17:08:58.137Z,4.57
2023-03-24T17:11:28.988Z,5.60
2023-03-24T17:14:04.781Z,4.60
2023-03-24T17:16:36.706Z,5.37
2023-03-24T17:19:06.172Z,4.57
2023-03-24T17:21:34.580Z,5.55
2023-03-24T17:24:02.891Z,5.27
2023-03-24T17:26:31.945Z,5.53
2023-03-24T17:29:00.342Z,5.28
2023-03-24T17:31:28.083Z,5.62
2023-03-24T17:33:59.142Z,5.85
2023-03-24T17:36:28.383Z,5.87
2023-03-24T17:38:56.349Z,6.25
2023-03-24T17:41:24.044Z,6.12
2023-03-24T17:43:51.624Z,6.50
2023-03-24T17:46:19.688Z,6.55
2023-03-24T17:48:49.284Z,6.97
2023-03-24T17:51:17.342Z,6.55
2023-03-24T17:53:45.261Z,7.93
2023-03-24T17:56:12.959Z,6.90
2023-03-24T17:58:41.745Z,7.35
2023-03-24T18:01:10.916Z,6.77
2023-03-24T18:03:38.898Z,6.85
2023-03-24T18:06:08.646Z,6.72
2023-03-24T18:08:37.061Z,10.60
2023-03-24T18:11:10.549Z,17.58
2023-03-24T18:13:38.162Z,35.07
2023-03-24T18:16:19.908Z,29.20
2023-03-24T18:18:49.724Z,26.85
2023-03-24T18:21:19.167Z,21.67
2023-03-24T18:23:48.621Z,15.80
2023-03-24T18:26:17.277Z,19.83
2023-03-24T18:28:46.161Z,19.00
2023-03-24T18:31:20.296Z,18.65
2023-03-24T18:33:49.475Z,15.05
2023-03-24T18:36:26.190Z,13.68
2023-03-24T18:38:59.790Z,11.97
2023-03-24T18:41:28.439Z,11.82
2023-03-24T18:43:58.624Z,9.82
2023-03-24T18:46:27.367Z,10.23
2023-03-24T18:48:55.669Z,9.75
2023-03-24T18:51:28.329Z,10.20
2023-03-24T18:53:56.164Z,10.48
2023-03-24T18:56:25.021Z,11.38
2023-03-24T18:58:53.170Z,10.35
2023-03-24T19:01:26.151Z,10.88
2023-03-24T19:03:54.416Z,12.10
2023-03-24T19:06:26.127Z,13.43
2023-03-24T19:08:54.402Z,13.18
2023-03-24T19:11:22.091Z,13.70
2023-03-24T19:13:50.882Z,14.45
2023-03-24T19:16:20.228Z,13.87
2023-03-24T19:18:48.606Z,13.57
2023-03-24T19:21:17.290Z,12.15
2023-03-24T19:23:46.920Z,11.93
2023-03-24T19:26:20.279Z,14.13
2023-03-24T19:28:48.788Z,14.93
2023-03-24T19:31:18.566Z,13.62
2023-03-24T19:33:47.361Z,14.63
2023-03-24T19:36:15.744Z,12.85
2023-03-24T19:38:44.379Z,12.68
2023-03-24T19:41:14.082Z,9.57
2023-03-24T19:43:43.095Z,7.70
2023-03-24T19:46:12.252Z,7.72
2023-03-24T19:48:40.602Z,7.57
2023-03-24T19:51:09.851Z,8.95
2023-03-24T19:53:38.407Z,9.87
2023-03-24T19:56:07.106Z,9.45
2023-03-24T19:58:35.327Z,8.55
2023-03-24T20:01:03.851Z,8.20
2023-03-24T20:03:32.442Z,9.35
2023-03-24T20:06:09.005Z,10.17
2023-03-24T20:08:38.111Z,11.57
2023-03-24T20:11:10.571Z,11.95
2023-03-24T20:13:38.688Z,11.80
2023-03-24T20:16:07.026Z,11.82
2023-03-24T20:18:35.789Z,11.87
2023-03-24T20:21:06.286Z,10.48
2023-03-24T20:23:34.365Z,11.00
2023-03-24T20:26:02.111Z,11.15
2023-03-24T20:28:30.285Z,11.60
2023-03-24T20:31:00.317Z,12.20
2023-03-24T20:33:31.073Z,10.68
2023-03-24T20:35:59.461Z,10.32
2023-03-24T20:38:27.330Z,8.60
2023-03-24T20:41:05.524Z,7.50
2023-03-24T20:43:36.174Z,6.20
2023-03-24T20:46:05.463Z,5.05
2023-03-24T20:48:33.937Z,4.07
2023-03-24T20:51:03.883Z,3.30
2023-03-24T20:53:35.830Z,4.60
2023-03-24T20:56:08.870Z,3.90
2023-03-24T20:58:37.807Z,3.72
2023-03-24T21:01:08.103Z,3.80
2023-03-24T21:03:36.604Z,3.80
2023-03-24T21:06:04.522Z,4.05
2023-03-24T21:08:32.941Z,4.20
2023-03-24T21:11:01.181Z,3.53
2023-03-24T21:13:37.162Z,3.80
2023-03-24T21:16:08.217Z,3.17
2023-03-24T21:18:37.921Z,3.97
2023-03-24T21:21:06.618Z,3.57
2023-03-24T21:23:34.568Z,3.37
2023-03-24T21:26:02.659Z,3.95
2023-03-24T21:28:31.286Z,2.78
2023-03-24T21:31:04.943Z,3.40
2023-03-24T21:33:33.396Z,3.07
2023-03-24T21:36:01.227Z,2.72
2023-03-24T21:38:28.999Z,2.78
2023-03-24T21:41:00.866Z,3.08
2023-03-24T21:43:29.244Z,3.00
2023-03-24T21:45:57.917Z,3.33
2023-03-24T21:48:28.892Z,2.70
2023-03-24T21:50:57.524Z,3.00
2023-03-24T21:53:26.206Z,2.90
2023-03-24T21:55:55.870Z,3.40
2023-03-24T21:58:23.920Z,3.77
2023-03-24T22:00:52.074Z,3.03
2023-03-24T22:03:21.794Z,2.83
2023-03-24T22:05:49.658Z,3.08
2023-03-24T22:08:22.662Z,3.30
2023-03-24T22:10:54.310Z,2.90
2023-03-24T22:13:21.834Z,3.08
2023-03-24T22:15:55.014Z,3.22
2023-03-24T22:18:23.712Z,2.42
2023-03-24T22:21:03.681Z,2.55
2023-03-24T22:23:33.470Z,2.67
2023-03-24T22:26:02.201Z,3.47
2023-03-24T22:28:31.602Z,2.95
2023-03-24T22:31:10.311Z,3.35
2023-03-24T22:33:38.685Z,2.90
2023-03-24T22:36:07.061Z,2.80
2023-03-24T22:38:35.197Z,3.00
2023-03-24T22:41:07.734Z,3.72
2023-03-24T22:43:36.485Z,3.00
2023-03-24T22:46:04.656Z,3.17
2023-03-24T22:48:32.269Z,2.93
2023-03-24T22:51:00.448Z,3.55
2023-03-24T22:53:28.578Z,3.22
2023-03-24T22:55:56.430Z,2.70
2023-03-24T22:58:24.237Z,2.97
2023-03-24T23:00:55.319Z,3.10
2023-03-24T23:03:22.846Z,2.87
2023-03-24T23:05:50.708Z,3.67
2023-03-24T23:08:19.323Z,3.12
2023-03-24T23:10:47.177Z,3.00
2023-03-24T23:13:17.048Z,3.20
2023-03-24T23:15:48.416Z,2.90
2023-03-24T23:18:16.952Z,3.03
2023-03-24T23:20:45.321Z,3.10
2023-03-24T23:23:13.550Z,3.08
2023-03-24T23:25:43.412Z,3.13
2023-03-24T23:28:12.264Z,2.97
2023-03-24T23:30:40.598Z,3.40
2023-03-24T23:33:08.284Z,3.50
2023-03-24T23:35:37.583Z,3.15
2023-03-24T23:38:06.799Z,3.03
2023-03-24T23:40:34.580Z,3.00
2023-03-24T23:43:02.354Z,2.80
2023-03-24T23:45:29.936Z,3.12
2023-03-24T23:47:57.706Z,2.90
2023-03-24T23:50:26.226Z,2.73
2023-03-24T23:52:53.696Z,2.90
2023-03-24T23:55:21.912Z,2.90
2023-03-24T23:57:49.815Z,2.90
